Time;durP1;ratioP1;P1;durP2;ratioP2;P2;SDS_P1;SDS_P2;PMS_P1;PMS_P2;Temp;Humidity;BMP_temperature;BMP_pressure;BME280_temperature;BME280_humidity;BME280_pressure;Samples;Min_cycle;Max_cycle;Signal;HPM_P1;HPM_P2
2022/06/11 00:00:50;;;;;;;;;5.67;5.33;;;;;20.36;57.14;101856.25;6247500;22;45188;-80
2022/06/11 00:03:16;;;;;;;;;5.75;5.25;;;;;20.33;57.27;101865.22;6247408;22;45287;-80
2022/06/11 00:05:42;;;;;;;;;7.00;7.00;;;;;20.30;57.52;101856.41;6220340;22;45328;-80
2022/06/11 00:08:08;;;;;;;;;4.00;4.00;;;;;20.26;57.79;101867.19;6245480;22;46950;-80
2022/06/11 00:10:34;;;;;;;;;6.33;6.33;;;;;20.23;57.63;101859.25;6247790;22;45355;-81
2022/06/11 00:12:59;;;;;;;;;6.25;6.25;;;;;20.20;57.82;101858.44;6220309;22;45400;-80
2022/06/11 00:15:26;;;;;;;;;5.00;5.00;;;;;20.17;58.00;101856.72;6248097;22;45442;-80
2022/06/11 00:17:52;;;;;;;;;5.33;4.00;;;;;20.17;57.93;101855.84;6247870;22;46097;-80
2022/06/11 00:20:19;;;;;;;;;4.33;3.33;;;;;20.14;57.99;101859.47;6247763;22;45186;-81
2022/06/11 00:22:44;;;;;;;;;5.00;5.00;;;;;20.15;57.96;101860.34;6247761;22;45224;-80
2022/06/11 00:25:11;;;;;;;;;5.00;4.00;;;;;20.14;58.19;101858.63;6220256;22;45471;-80
2022/06/11 00:27:36;;;;;;;;;4.67;4.67;;;;;20.13;58.18;101857.75;6220238;22;46744;-79
2022/06/11 00:30:04;;;;;;;;;6.33;5.00;;;;;20.11;58.27;101859.56;6220110;22;45387;-80
2022/06/11 00:32:30;;;;;;;;;4.33;4.33;;;;;20.08;58.43;101854.31;6247586;22;45339;-79
2022/06/11 00:34:59;;;;;;;;;5.00;5.00;;;;;20.06;58.71;101864.16;6219958;22;45608;-80
2022/06/11 00:37:24;;;;;;;;;2.00;2.00;;;;;20.04;58.61;101861.50;6247116;22;45316;-80
2022/06/11 00:39:50;;;;;;;;;5.00;3.00;;;;;20.03;58.79;101854.41;6247370;22;45134;-79
2022/06/11 00:42:27;;;;;;;;;3.00;3.00;;;;;20.01;58.68;101853.56;6248155;22;45227;-80
2022/06/11 00:45:29;;;;;;;;;5.67;5.67;;;;;19.99;58.45;101854.50;6220172;22;45198;-80
2022/06/11 00:48:03;;;;;;;;;4.00;3.00;;;;;19.97;58.99;101864.41;6247426;22;45897;-80
2022/06/11 00:50:39;;;;;;;;;9.00;5.00;;;;;19.95;59.09;101853.72;6219663;22;45232;-80
2022/06/11 00:53:18;;;;;;;;;3.50;3.50;;;;;19.93;59.01;101862.69;6247520;22;45177;-79
2022/06/11 00:55:45;;;;;;;;;3.00;3.00;;;;;19.92;59.25;101863.63;6219751;22;45478;-80
2022/06/11 00:58:16;;;;;;;;;4.67;4.67;;;;;19.91;59.17;101861.84;6247617;22;46376;-80
2022/06/11 01:00:46;;;;;;;;;3.33;3.33;;;;;19.89;59.20;101861.91;6247552;22;45430;-80
2022/06/11 01:03:17;;;;;;;;;5.00;5.00;;;;;19.88;59.47;101856.59;6220049;22;45178;-80
2022/06/11 01:05:47;;;;;;;;;3.67;3.67;;;;;19.89;59.10;101861.00;6247271;22;45387;-80
2022/06/11 01:08:28;;;;;;;;;3.75;3.75;;;;;19.87;59.04;101860.19;6247397;22;45196;-80
2022/06/11 01:11:20;;;;;;;;;4.00;4.00;;;;;19.83;59.37;101859.38;6219221;22;45367;-80
2022/06/11 01:14:13;;;;;;;;;3.00;3.00;;;;;19.81;59.24;101855.88;6247640;22;45183;-80
2022/06/11 01:16:58;;;;;;;;;5.00;5.00;;;;;19.78;59.30;101859.50;6245318;22;45969;-79
2022/06/11 01:19:49;;;;;;;;;5.75;5.00;;;;;19.76;59.85;101858.66;6247194;22;46818;-80
2022/06/11 01:22:31;;;;;;;;;7.75;6.75;;;;;19.73;59.63;101855.19;6247298;22;45363;-80
2022/06/11 01:25:15;;;;;;;;;5.00;5.00;;;;;19.71;59.74;101854.34;6220027;22;45388;-80
2022/06/11 01:27:54;;;;;;;;;6.67;6.67;;;;;19.68;59.88;101849.06;6219132;22;45430;-80
2022/06/11 01:30:27;;;;;;;;;6.33;4.33;;;;;19.66;59.90;101851.75;6245121;22;46156;-80
2022/06/11 01:33:07;;;;;;;;;5.50;5.00;;;;;19.67;59.83;101849.97;6219686;22;45230;-79
2022/06/11 01:35:42;;;;;;;;;5.75;5.75;;;;;19.65;60.02;101849.97;6245067;22;45234;-80
2022/06/11 01:38:16;;;;;;;;;4.50;4.00;;;;;19.68;60.31;101854.41;6246964;22;45169;-80
2022/06/11 01:40:52;;;;;;;;;4.50;4.25;;;;;19.67;60.15;101847.28;6219395;22;47243;-80
2022/06/11 01:43:24;;;;;;;;;7.75;6.25;;;;;19.71;60.09;101854.34;6245012;22;45201;-80
2022/06/11 01:45:51;;;;;;;;;7.25;6.25;;;;;19.69;59.89;101850.81;6247291;22;45269;-80
2022/06/11 01:48:21;;;;;;;;;5.00;5.00;;;;;19.71;60.11;101859.69;6247395;22;45318;-80
2022/06/11 01:51:11;;;;;;;;;6.25;5.00;;;;;19.70;59.75;101853.47;6247014;22;46180;-80
2022/06/11 01:53:44;;;;;;;;;7.00;6.00;;;;;19.69;59.90;101858.81;6247009;22;45175;-80
2022/06/11 01:56:17;;;;;;;;;5.00;5.00;;;;;19.68;59.91;101863.28;6247433;22;45252;-80
2022/06/11 01:59:15;;;;;;;;;8.25;6.50;;;;;19.67;60.21;101861.53;6219673;22;45353;-79
2022/06/11 02:02:11;;;;;;;;;5.00;5.00;;;;;19.66;60.36;101862.44;6237243;22;47292;-80
2022/06/11 02:04:57;;;;;;;;;6.25;4.50;;;;;19.65;60.72;101863.34;6219384;22;45351;-80
2022/06/11 02:07:42;;;;;;;;;8.50;7.00;;;;;19.62;60.73;101866.09;6247099;22;45272;-80
2022/06/11 02:10:28;;;;;;;;;8.00;8.00;;;;;19.60;60.48;101867.91;6247370;22;45373;-80
2022/06/11 02:13:32;;;;;;;;;7.75;6.75;;;;;19.57;61.07;101868.00;6247384;22;45226;-80
2022/06/11 02:16:08;;;;;;;;;7.25;6.25;;;;;19.56;61.21;101872.44;6199220;22;45251;-80
2022/06/11 02:18:35;;;;;;;;;6.00;5.00;;;;;19.54;61.08;101860.00;6247113;22;45118;-80
2022/06/11 02:21:09;;;;;;;;;4.25;4.25;;;;;19.54;61.08;101871.59;6246991;22;45408;-80
2022/06/11 02:23:41;;;;;;;;;6.50;6.50;;;;;19.51;60.89;101860.09;6219881;22;47280;-80
2022/06/11 02:26:17;;;;;;;;;7.75;6.25;;;;;19.50;60.79;101861.03;6248631;22;45123;-80
2022/06/11 02:28:46;;;;;;;;;6.25;6.25;;;;;19.47;61.13;101864.63;6248721;22;45175;-81
2022/06/11 02:31:16;;;;;;;;;6.00;6.00;;;;;19.43;61.13;101870.94;6220911;22;45388;-80
2022/06/11 02:33:43;;;;;;;;;4.25;4.25;;;;;19.44;61.27;101866.50;6247812;22;45445;-80
2022/06/11 02:36:12;;;;;;;;;4.50;4.50;;;;;19.43;61.15;101873.63;6247476;22;45176;-80
2022/06/11 02:38:38;;;;;;;;;6.00;6.00;;;;;19.40;61.75;101871.03;6220363;22;45321;-80
2022/06/11 02:41:12;;;;;;;;;5.00;5.00;;;;;19.42;61.21;101874.53;6248752;22;45447;-80
2022/06/11 02:43:38;;;;;;;;;6.50;6.00;;;;;19.38;61.27;101880.88;6221923;22;46801;-80
2022/06/11 02:48:51;;;;;;;;;8.50;8.00;;;;;19.36;61.66;101886.25;6250957;22;45382;-80
2022/06/11 02:51:19;;;;;;;;;4.00;4.00;;;;;19.33;61.42;101880.97;6249267;22;45162;-80
2022/06/11 02:53:44;;;;;;;;;6.00;6.00;;;;;19.33;61.80;101882.78;6248655;22;45283;-80
2022/06/11 02:56:09;;;;;;;;;7.25;5.75;;;;;19.35;61.23;101878.25;6248657;22;45235;-80
2022/06/11 02:58:35;;;;;;;;;5.00;5.00;;;;;19.30;61.64;101875.72;6248822;22;45453;-80
2022/06/11 03:01:00;;;;;;;;;6.00;6.00;;;;;19.29;61.65;101887.28;6248708;22;45355;-80
2022/06/11 03:03:27;;;;;;;;;5.75;5.75;;;;;19.29;61.67;101891.75;6248334;22;46118;-80
2022/06/11 03:05:52;;;;;;;;;7.25;5.50;;;;;19.25;61.34;101887.41;6248592;22;45415;-80
2022/06/11 03:08:18;;;;;;;;;5.00;5.00;;;;;19.25;61.58;101893.63;6248237;22;45362;-80
2022/06/11 03:10:44;;;;;;;;;4.75;4.75;;;;;19.23;61.86;101894.56;6248323;22;45279;-80
2022/06/11 03:13:09;;;;;;;;;5.75;5.25;;;;;19.19;61.95;101893.72;6246206;22;47890;-80
2022/06/11 03:15:35;;;;;;;;;7.25;6.25;;;;;19.18;62.05;101897.31;6248366;22;45333;-80
2022/06/11 03:18:00;;;;;;;;;7.00;6.00;;;;;19.18;61.94;101902.66;6248610;22;45402;-80
2022/06/11 03:20:29;;;;;;;;;7.00;7.00;;;;;19.15;61.94;101900.94;6220582;22;45384;-80
2022/06/11 03:22:55;;;;;;;;;7.00;6.25;;;;;19.11;62.33;101899.25;6247511;22;45135;-80
2022/06/11 03:25:21;;;;;;;;;6.00;6.00;;;;;19.09;62.05;101902.88;6248336;22;45208;-80
2022/06/11 03:27:47;;;;;;;;;6.50;6.50;;;;;19.07;62.05;101900.22;6248191;22;45387;-80
2022/06/11 03:30:14;;;;;;;;;7.00;6.75;;;;;19.01;62.68;101908.34;6220560;22;45391;-80
2022/06/11 03:32:40;;;;;;;;;7.00;6.00;;;;;18.98;62.33;101904.84;6248130;22;45316;-80
2022/06/11 03:35:07;;;;;;;;;7.25;7.00;;;;;18.94;62.38;101912.03;6247470;22;45396;-80
2022/06/11 03:37:33;;;;;;;;;6.00;6.00;;;;;18.91;62.98;101912.97;6247574;22;45410;-80
2022/06/11 03:39:58;;;;;;;;;7.50;7.50;;;;;18.88;62.59;101914.84;6248280;22;45307;-80
2022/06/11 03:42:24;;;;;;;;;7.25;7.25;;;;;18.83;62.79;101912.25;6248203;22;45150;-80
2022/06/11 03:44:49;;;;;;;;;8.00;8.00;;;;;18.81;63.15;101922.06;6248441;22;45143;-80
2022/06/11 03:47:15;;;;;;;;;9.00;9.00;;;;;18.79;63.25;101921.25;6248476;22;45237;-80
2022/06/11 03:49:40;;;;;;;;;8.50;8.50;;;;;18.78;63.24;101918.59;6220537;22;45423;-80
2022/06/11 03:52:06;;;;;;;;;7.00;7.00;;;;;18.75;63.53;101929.31;6245996;22;47163;-80
2022/06/11 03:54:32;;;;;;;;;8.75;7.00;;;;;18.72;63.47;101928.44;6248130;22;45321;-80
2022/06/11 03:56:58;;;;;;;;;7.75;7.00;;;;;18.70;63.67;101926.69;6246259;22;45296;-80
2022/06/11 03:59:24;;;;;;;;;7.75;5.00;;;;;18.70;63.56;101934.69;6248348;22;45695;-80
2022/06/11 04:01:51;;;;;;;;;7.00;6.50;;;;;18.68;63.64;101941.84;6246902;22;45412;-80
2022/06/11 04:04:19;;;;;;;;;7.50;7.50;;;;;18.68;63.85;101944.50;6247610;22;45402;-80
2022/06/11 04:06:57;;;;;;;;;8.00;7.00;;;;;18.67;63.57;101940.09;6247928;22;45229;-80
2022/06/11 04:09:28;;;;;;;;;8.50;7.25;;;;;18.65;63.77;101948.13;6220158;22;45506;-80
2022/06/11 04:11:53;;;;;;;;;7.50;5.25;;;;;18.65;64.00;101952.56;6245606;22;48199;-80
2022/06/11 04:14:19;;;;;;;;;8.00;7.50;;;;;18.63;63.68;101951.72;6220350;22;45210;-80
2022/06/11 04:16:52;;;;;;;;;9.50;7.50;;;;;18.64;63.66;101958.84;6221016;22;45206;-79
2022/06/11 04:19:27;;;;;;;;;5.25;5.25;;;;;18.62;63.97;101963.31;6220470;22;45186;-79
2022/06/11 04:21:54;;;;;;;;;10.00;9.00;;;;;18.64;64.32;101966.84;6221276;22;47151;-80
2022/06/11 04:24:20;;;;;;;;;8.75;7.50;;;;;18.62;64.36;101965.97;6247938;22;45200;-80
2022/06/11 04:26:49;;;;;;;;;6.00;6.00;;;;;18.59;64.00;101966.91;6220775;22;45163;-80
2022/06/11 04:29:18;;;;;;;;;8.00;6.00;;;;;18.61;64.05;101969.56;6220401;22;45464;-80
2022/06/11 04:31:46;;;;;;;;;7.25;7.00;;;;;18.61;64.06;101974.91;6248165;22;46089;-80
2022/06/11 04:34:13;;;;;;;;;10.75;8.75;;;;;18.59;64.65;101979.38;6247344;22;45249;-80
2022/06/11 04:36:40;;;;;;;;;6.25;6.25;;;;;18.58;64.31;101986.50;6245844;22;45351;-79
2022/06/11 04:39:07;;;;;;;;;5.25;5.00;;;;;18.57;64.80;101981.16;6247509;22;45384;-79
2022/06/11 04:41:33;;;;;;;;;9.25;9.00;;;;;18.57;64.42;101984.72;6247302;22;45229;-80
2022/06/11 04:43:58;;;;;;;;;8.00;8.00;;;;;18.57;64.39;101982.03;6247678;22;45239;-80
2022/06/11 04:46:25;;;;;;;;;6.75;6.75;;;;;18.56;64.67;101985.63;6220725;22;45649;-80
2022/06/11 04:48:50;;;;;;;;;8.00;7.00;;;;;18.57;64.64;101992.72;6220555;22;45849;-80
2022/06/11 04:51:16;;;;;;;;;8.50;7.50;;;;;18.57;64.88;101989.16;6247347;22;45506;-80
2022/06/11 04:53:44;;;;;;;;;9.00;8.00;;;;;18.57;64.60;101987.38;6247527;22;45260;-80
2022/06/11 04:56:12;;;;;;;;;10.75;8.75;;;;;18.57;64.77;101987.38;6220165;22;45205;-80
2022/06/11 04:58:38;;;;;;;;;7.25;7.00;;;;;18.57;64.94;101986.50;6220039;22;45409;-80
2022/06/11 05:01:03;;;;;;;;;8.00;5.00;;;;;18.61;64.91;101991.78;6247808;22;45119;-80
2022/06/11 05:03:28;;;;;;;;;7.00;7.00;;;;;18.63;64.88;101997.97;6246921;22;45327;-80
2022/06/11 05:05:54;;;;;;;;;8.00;8.00;;;;;18.64;65.00;101990.84;6245955;22;45236;-80
2022/06/11 05:08:19;;;;;;;;;6.75;6.75;;;;;18.63;65.18;101992.63;6247709;22;45173;-80
2022/06/11 05:10:45;;;;;;;;;8.00;8.00;;;;;18.64;64.84;101996.19;6247759;22;45248;-80
2022/06/11 05:13:12;;;;;;;;;8.00;7.00;;;;;18.65;65.16;102000.59;6247841;22;45185;-79
2022/06/11 05:15:43;;;;;;;;;9.50;7.75;;;;;18.64;65.10;101994.38;6220206;22;45271;-80
2022/06/11 05:18:09;;;;;;;;;9.00;8.00;;;;;18.67;64.90;101997.00;6219904;22;45414;-80
2022/06/11 05:20:34;;;;;;;;;8.50;7.75;;;;;18.69;64.88;101995.19;6247336;22;46003;-80
2022/06/11 05:23:00;;;;;;;;;9.50;9.25;;;;;18.73;64.90;101996.00;6247116;22;45149;-80
2022/06/11 05:25:25;;;;;;;;;7.00;7.00;;;;;18.76;64.88;101992.44;6247732;22;45409;-80
2022/06/11 05:27:51;;;;;;;;;11.75;8.00;;;;;18.76;65.15;102001.31;6247504;22;45178;-79
2022/06/11 05:30:22;;;;;;;;;7.75;7.00;;;;;18.78;65.14;101991.50;6247469;22;45208;-80
2022/06/11 05:32:47;;;;;;;;;7.00;6.25;;;;;18.82;65.10;101994.97;6220077;22;45110;-79
2022/06/11 05:35:24;;;;;;;;;6.50;6.50;;;;;18.84;65.14;101987.84;6247502;22;45154;-79
2022/06/11 05:37:52;;;;;;;;;7.00;7.00;;;;;18.87;65.18;101990.44;6247202;22;45236;-79
2022/06/11 05:40:21;;;;;;;;;8.50;7.50;;;;;18.88;64.91;101986.88;6219356;22;46569;-80
2022/06/11 05:42:49;;;;;;;;;8.50;7.00;;;;;18.90;64.71;101990.41;6247629;22;45358;-80
2022/06/11 05:45:18;;;;;;;;;10.00;9.00;;;;;18.94;65.00;101984.97;6247199;22;45224;-79
2022/06/11 05:47:47;;;;;;;;;11.00;8.75;;;;;18.99;64.84;101994.69;6246567;22;45339;-79
2022/06/11 05:50:20;;;;;;;;;8.00;7.00;;;;;19.03;64.54;101993.72;6244957;22;47229;-80
2022/06/11 05:52:45;;;;;;;;;8.50;6.00;;;;;19.05;64.66;101998.13;6219390;22;45500;-79
2022/06/11 05:55:20;;;;;;;;;5.25;5.00;;;;;19.09;64.37;102002.50;6219756;22;45236;-79
2022/06/11 05:57:49;;;;;;;;;8.00;7.50;;;;;19.11;64.06;101998.03;6220062;22;47172;-80
2022/06/11 06:00:17;;;;;;;;;8.25;7.00;;;;;19.13;63.88;102003.31;6248047;22;45311;-80
2022/06/11 06:02:44;;;;;;;;;7.75;7.75;;;;;19.15;63.66;102005.03;6248271;22;45361;-80
2022/06/11 06:05:15;;;;;;;;;6.75;6.75;;;;;19.17;63.75;101997.91;6248382;22;45255;-80
2022/06/11 06:07:41;;;;;;;;;7.00;7.00;;;;;19.21;64.11;102001.38;6246149;22;45905;-79
2022/06/11 06:10:06;;;;;;;;;7.00;7.00;;;;;19.23;63.46;102006.69;6221293;22;48445;-80
2022/06/11 06:12:33;;;;;;;;;7.75;5.00;;;;;19.27;63.96;102003.94;6220845;22;45271;-80
2022/06/11 06:15:13;;;;;;;;;6.75;6.75;;;;;19.29;63.33;102007.44;6221172;22;45367;-80
2022/06/11 06:17:39;;;;;;;;;8.50;7.25;;;;;19.31;63.56;102002.97;6248561;22;45210;-80
2022/06/11 06:20:07;;;;;;;;;4.00;4.00;;;;;19.33;62.92;101997.59;6220421;22;48148;-80
2022/06/11 06:22:33;;;;;;;;;6.67;6.00;;;;;19.36;62.86;102005.53;6247761;22;45325;-80
2022/06/11 06:25:02;;;;;;;;;5.67;5.67;;;;;19.37;62.65;102009.97;6248289;22;45311;-80
2022/06/11 06:27:28;;;;;;;;;6.00;5.67;;;;;19.42;62.96;102010.75;6248227;22;45332;-80
2022/06/11 06:29:53;;;;;;;;;10.25;7.00;;;;;19.47;62.47;102016.88;6246310;22;47026;-80
2022/06/11 06:32:18;;;;;;;;;6.00;6.00;;;;;19.50;62.65;102015.94;6248475;22;45229;-80
2022/06/11 06:34:44;;;;;;;;;9.25;8.50;;;;;19.53;62.44;102014.06;6246276;22;45252;-80
2022/06/11 06:37:10;;;;;;;;;5.75;5.75;;;;;19.58;62.33;102005.97;6246128;22;45451;-80
2022/06/11 06:39:35;;;;;;;;;5.50;4.75;;;;;19.63;62.27;102009.44;6220521;22;47522;-80
2022/06/11 06:42:01;;;;;;;;;6.50;5.00;;;;;19.69;62.20;102013.81;6220852;22;45247;-80
2022/06/11 06:44:27;;;;;;;;;6.67;6.00;;;;;19.74;61.95;102012.78;6221435;22;45387;-80
2022/06/11 06:46:52;;;;;;;;;5.50;5.25;;;;;19.85;61.86;102015.22;6246181;22;45463;-80
2022/06/11 06:49:18;;;;;;;;;3.00;3.00;;;;;19.97;61.51;102019.44;6248012;22;45382;-79
2022/06/11 06:51:43;;;;;;;;;3.67;2.67;;;;;20.10;60.86;102022.69;6220734;22;45444;-79
2022/06/11 06:54:09;;;;;;;;;4.67;3.33;;;;;20.19;59.83;102023.38;6220593;22;45611;-80
2022/06/11 06:56:34;;;;;;;;;3.67;2.33;;;;;20.30;59.44;102020.44;6248294;22;45363;-80
2022/06/11 06:59:01;;;;;;;;;2.67;2.67;;;;;20.44;59.41;102020.97;6246016;22;47998;-80
2022/06/11 07:01:28;;;;;;;;;4.67;4.00;;;;;20.58;58.75;102023.38;6220091;22;45530;-80
2022/06/11 07:03:54;;;;;;;;;4.00;3.00;;;;;20.74;58.72;102023.84;6220159;22;45315;-80
2022/06/11 07:06:20;;;;;;;;;3.00;3.00;;;;;20.83;58.35;102020.06;6220106;22;45483;-80
2022/06/11 07:08:45;;;;;;;;;15.00;14.25;;;;;20.94;58.31;102017.97;6219041;22;47016;-80
2022/06/11 07:11:11;;;;;;;;;3.00;3.00;;;;;21.04;57.56;102021.31;6247930;22;45137;-80
2022/06/11 07:13:36;;;;;;;;;3.67;2.33;;;;;21.14;57.27;102022.78;6247816;22;45308;-80
2022/06/11 07:16:04;;;;;;;;;3.33;3.00;;;;;21.19;56.46;102015.50;6247948;22;45204;-79
2022/06/11 07:18:46;;;;;;;;;3.00;2.33;;;;;21.22;56.17;102015.41;6220099;22;45312;-79
2022/06/11 07:21:20;;;;;;;;;3.00;3.00;;;;;21.30;55.77;102023.25;6247673;22;45402;-79
2022/06/11 07:23:57;;;;;;;;;4.00;4.00;;;;;21.41;55.59;102014.94;6247280;22;45122;-79
2022/06/11 07:26:28;;;;;;;;;2.67;2.67;;;;;21.52;55.06;102013.72;6220107;22;45497;-79
2022/06/11 07:29:00;;;;;;;;;4.33;2.00;;;;;21.63;54.80;102015.22;6219736;22;47460;-79
2022/06/11 07:31:29;;;;;;;;;23.00;21.00;;;;;21.75;55.09;102017.50;6247493;22;45339;-80
2022/06/11 07:33:59;;;;;;;;;5.00;5.00;;;;;21.92;54.78;102022.34;6245583;22;45288;-79
2022/06/11 07:36:25;;;;;;;;;2.67;2.67;;;;;22.06;54.50;102020.13;6247392;22;45367;-79
2022/06/11 07:38:51;;;;;;;;;2.67;2.67;;;;;22.12;53.87;102019.06;6247559;22;46239;-79
2022/06/11 07:41:17;;;;;;;;;4.67;3.67;;;;;22.17;54.02;102017.97;6219750;22;45563;-79
2022/06/11 07:43:42;;;;;;;;;3.00;3.00;;;;;22.25;54.20;102017.78;6247862;22;45213;-80
2022/06/11 07:46:08;;;;;;;;;3.00;3.00;;;;;22.36;53.67;102025.47;6247836;22;45212;-79
2022/06/11 07:48:33;;;;;;;;;5.67;4.67;;;;;22.39;53.69;102017.31;6246926;22;45282;-79
2022/06/11 07:50:59;;;;;;;;;5.00;4.00;;;;;22.44;53.79;102024.28;6247484;22;45145;-80
2022/06/11 07:53:25;;;;;;;;;3.00;3.00;;;;;22.49;53.03;102015.22;6247614;22;45212;-79
2022/06/11 07:55:52;;;;;;;;;5.33;5.33;;;;;22.51;52.82;102019.63;6247554;22;45116;-79
2022/06/11 07:58:21;;;;;;;;;3.33;3.33;;;;;22.52;52.83;102015.13;6247368;22;45409;-79
2022/06/11 08:00:49;;;;;;;;;3.33;3.33;;;;;22.60;52.92;102013.06;6219971;22;45206;-79
2022/06/11 08:03:16;;;;;;;;;6.00;4.33;;;;;22.70;52.69;102010.94;6247380;22;45078;-79
2022/06/11 08:05:42;;;;;;;;;3.67;3.00;;;;;22.81;52.67;102011.44;6247056;22;45511;-80
2022/06/11 08:08:09;;;;;;;;;1.00;1.00;;;;;22.89;52.51;102012.94;6247427;22;46264;-80
2022/06/11 08:10:37;;;;;;;;;3.00;3.00;;;;;23.00;52.25;102011.72;6245211;22;45560;-80
2022/06/11 08:13:04;;;;;;;;;3.00;3.00;;;;;23.08;52.21;102012.31;6219525;22;45270;-80
2022/06/11 08:15:33;;;;;;;;;3.00;3.00;;;;;23.19;51.72;102026.25;6245163;22;45557;-80
2022/06/11 08:18:00;;;;;;;;;4.00;4.00;;;;;23.32;51.39;102021.31;6247154;22;45267;-79
2022/06/11 08:20:28;;;;;;;;;4.00;4.00;;;;;23.34;51.10;102024.81;6245058;22;45735;-80
2022/06/11 08:22:54;;;;;;;;;4.00;4.00;;;;;23.37;51.19;102015.78;6244729;22;45259;-80
2022/06/11 08:25:20;;;;;;;;;15.75;14.75;;;;;23.39;50.75;102013.88;6219378;22;45336;-80
2022/06/11 08:27:46;;;;;;;;;7.67;7.33;;;;;23.41;50.90;102017.38;6220077;22;47265;-80
2022/06/11 08:30:14;;;;;;;;;4.33;4.33;;;;;23.46;50.81;102012.72;6220090;22;45412;-80
2022/06/11 08:32:39;;;;;;;;;7.67;7.67;;;;;23.44;50.40;102019.97;6247370;22;45275;-80
2022/06/11 08:35:05;;;;;;;;;4.33;4.00;;;;;23.41;50.48;102020.06;6219369;22;45276;-81
2022/06/11 08:37:31;;;;;;;;;6.67;5.00;;;;;23.38;50.71;102013.00;6244968;22;47853;-80
2022/06/11 08:39:56;;;;;;;;;6.00;4.67;;;;;23.36;50.94;102016.69;6247257;22;45447;-80
2022/06/11 08:42:31;;;;;;;;;6.33;5.33;;;;;23.35;50.45;102021.19;6247453;22;45241;-80
2022/06/11 08:44:59;;;;;;;;;3.67;3.00;;;;;23.29;50.41;102010.66;6247066;22;45399;-80
2022/06/11 08:47:41;;;;;;;;;7.00;5.00;;;;;23.24;50.44;102009.97;6219440;22;46858;-80
2022/06/11 08:50:12;;;;;;;;;5.00;4.00;;;;;23.18;51.07;102012.88;6244954;22;45423;-80
2022/06/11 08:52:37;;;;;;;;;4.67;4.67;;;;;23.11;50.85;102010.38;6246977;22;45319;-80
2022/06/11 08:55:03;;;;;;;;;8.00;5.00;;;;;23.10;51.07;102005.09;6219188;22;45356;-80
2022/06/11 08:57:46;;;;;;;;;3.67;3.67;;;;;23.12;51.40;102005.88;6219572;22;47364;-80
2022/06/11 09:00:28;;;;;;;;;4.00;4.00;;;;;23.20;51.26;102001.13;6247454;22;45274;-80
2022/06/11 09:03:12;;;;;;;;;4.00;3.00;;;;;23.29;51.01;102002.59;6247129;22;45398;-80
2022/06/11 09:06:02;;;;;;;;;5.67;5.67;;;;;23.30;51.06;101997.16;6246959;22;45212;-80
2022/06/11 09:08:49;;;;;;;;;2.00;1.67;;;;;23.25;50.92;101992.88;6219173;22;46811;-80
2022/06/11 09:11:52;;;;;;;;;3.33;3.00;;;;;23.19;50.57;101995.81;6207051;22;45263;-79
2022/06/11 09:14:22;;;;;;;;;3.00;3.00;;;;;23.15;50.77;101987.00;6247025;22;45438;-80
2022/06/11 09:17:14;;;;;;;;;6.00;4.00;;;;;23.14;50.58;101993.28;6247474;22;45288;-79
2022/06/11 09:19:54;;;;;;;;;6.00;5.00;;;;;23.13;50.69;101987.97;6195547;22;47621;-80
2022/06/11 09:22:41;;;;;;;;;4.33;4.33;;;;;23.18;50.84;101984.19;6219595;22;45486;-80
2022/06/11 09:25:22;;;;;;;;;3.00;3.00;;;;;23.24;50.98;101988.47;6219401;22;45218;-80
2022/06/11 09:28:08;;;;;;;;;5.00;4.33;;;;;23.32;50.93;101989.91;6246790;22;45162;-80
2022/06/11 09:30:43;;;;;;;;;5.33;5.00;;;;;23.38;50.64;101991.50;6247027;22;45324;-80
2022/06/11 09:33:20;;;;;;;;;7.00;5.00;;;;;23.46;50.76;101993.91;6243949;22;45704;-79
2022/06/11 09:35:55;;;;;;;;;5.00;5.00;;;;;23.59;50.42;101981.75;6219431;22;45256;-81
2022/06/11 09:38:49;;;;;;;;;3.67;3.67;;;;;23.76;50.54;101990.09;6246661;22;45158;-79
2022/06/11 09:41:21;;;;;;;;;5.00;5.00;;;;;23.89;49.83;101992.28;6207093;22;47377;-79
2022/06/11 09:44:16;;;;;;;;;6.33;5.33;;;;;24.02;49.51;101992.69;6219093;22;45405;-79
2022/06/11 09:47:18;;;;;;;;;1.00;1.00;;;;;24.14;49.41;101987.69;6225821;22;45301;-79
2022/06/11 09:50:13;;;;;;;;;3.00;3.00;;;;;24.20;49.37;101989.25;6215320;22;45726;-81
2022/06/11 09:52:54;;;;;;;;;3.67;3.67;;;;;24.23;48.96;101983.72;6245063;22;45480;-80
2022/06/11 09:55:38;;;;;;;;;3.67;3.67;;;;;24.29;49.32;101979.91;6235205;22;45229;-79
2022/06/11 09:58:19;;;;;;;;;4.67;4.00;;;;;24.31;48.75;101981.59;6246948;22;45229;-79
2022/06/11 10:00:48;;;;;;;;;3.67;3.67;;;;;24.32;48.64;101993.22;6246174;22;45527;-79
2022/06/11 10:03:35;;;;;;;;;4.67;4.67;;;;;24.31;48.42;101989.66;6245136;22;45238;-81
2022/06/11 10:06:03;;;;;;;;;4.00;4.00;;;;;24.39;48.21;101994.75;6218212;22;45207;-79
2022/06/11 10:08:48;;;;;;;;;4.33;4.00;;;;;24.42;47.96;101990.09;6246331;22;45265;-80
2022/06/11 10:11:21;;;;;;;;;3.67;3.67;;;;;24.48;48.35;101993.50;6218461;22;45395;-80
2022/06/11 10:13:54;;;;;;;;;4.00;2.67;;;;;24.55;48.15;101985.09;6244189;22;48306;-80
2022/06/11 10:16:28;;;;;;;;;5.67;3.00;;;;;24.70;47.72;101994.34;6219724;22;45212;-80
2022/06/11 10:19:01;;;;;;;;;4.00;4.00;;;;;24.83;47.76;101986.59;6246310;22;45186;-80
2022/06/11 10:21:29;;;;;;;;;4.67;4.00;;;;;24.96;47.54;101990.50;6246358;22;45355;-80
2022/06/11 10:24:08;;;;;;;;;3.67;3.33;;;;;25.15;47.68;101987.91;6245775;22;45443;-80
2022/06/11 10:26:45;;;;;;;;;5.67;4.67;;;;;25.34;47.41;101987.97;6246198;22;45356;-80
2022/06/11 10:29:40;;;;;;;;;5.00;4.00;;;;;25.40;46.89;101986.81;6218557;22;45300;-80
2022/06/11 10:32:18;;;;;;;;;3.00;3.00;;;;;25.39;46.46;101987.72;6215319;22;45628;-80
2022/06/11 10:34:52;;;;;;;;;2.67;2.67;;;;;25.29;46.48;101988.16;6245956;22;46296;-80
2022/06/11 10:37:37;;;;;;;;;3.33;2.33;;;;;25.22;45.73;101984.00;6218195;22;46102;-79
2022/06/11 10:40:10;;;;;;;;;4.00;4.00;;;;;25.23;46.58;101984.84;6245962;22;45166;-80
2022/06/11 10:42:44;;;;;;;;;5.00;2.00;;;;;25.24;45.46;101976.72;6218150;22;45750;-79
2022/06/11 10:45:15;;;;;;;;;2.67;2.33;;;;;25.33;45.95;101979.94;6247528;22;45414;-80
2022/06/11 10:47:56;;;;;;;;;5.33;5.00;;;;;25.44;45.57;101986.56;6220155;22;45159;-80
2022/06/11 10:50:28;;;;;;;;;3.67;3.67;;;;;25.56;45.07;101982.44;6220103;22;45307;-80
2022/06/11 10:52:59;;;;;;;;;4.67;4.67;;;;;25.63;45.09;101983.88;6220032;22;45264;-80
2022/06/11 10:55:34;;;;;;;;;3.00;3.00;;;;;25.73;45.21;101989.72;6219697;22;48312;-80
2022/06/11 10:58:10;;;;;;;;;2.67;2.00;;;;;25.85;44.91;101981.09;6219854;22;45242;-80
2022/06/11 11:00:45;;;;;;;;;3.00;2.00;;;;;25.99;44.31;101985.81;6219751;22;45243;-80
2022/06/11 11:03:26;;;;;;;;;3.00;3.00;;;;;26.15;43.92;101972.44;6214436;22;45192;-81
2022/06/11 11:05:59;;;;;;;;;6.00;3.33;;;;;26.20;43.34;101977.63;6216929;22;45392;-80
2022/06/11 11:08:25;;;;;;;;;3.00;3.00;;;;;26.23;43.72;101972.94;6214597;22;46298;-80
2022/06/11 11:10:53;;;;;;;;;4.00;2.67;;;;;26.28;43.83;101970.88;6217068;22;45386;-82
2022/06/11 11:13:24;;;;;;;;;2.33;2.33;;;;;26.40;43.41;101977.47;6216978;22;45375;-79
2022/06/11 11:16:01;;;;;;;;;5.33;3.33;;;;;26.51;42.94;101975.13;6189444;22;47251;-80
2022/06/11 11:18:39;;;;;;;;;5.00;4.33;;;;;26.64;42.72;101969.13;6217185;22;45266;-78
2022/06/11 11:21:05;;;;;;;;;2.67;2.67;;;;;26.77;42.70;101978.34;6216420;22;45170;-81
2022/06/11 11:23:40;;;;;;;;;1.33;0.67;;;;;26.87;42.25;101970.63;6216606;22;45213;-82
2022/06/11 11:26:12;;;;;;;;;3.00;3.00;;;;;26.98;42.67;101977.19;6189633;22;47480;-79
2022/06/11 11:28:50;;;;;;;;;3.67;3.67;;;;;27.14;42.10;101977.25;6217135;22;45199;-81
2022/06/11 11:31:31;;;;;;;;;1.67;1.00;;;;;27.25;40.94;101974.00;6190246;22;45171;-81
2022/06/11 11:34:22;;;;;;;;;1.00;1.00;;;;;27.30;41.09;101968.34;6214808;22;45431;-81
2022/06/11 11:36:48;;;;;;;;;3.67;3.00;;;;;27.35;41.42;101968.97;6189191;22;47252;-81
2022/06/11 11:39:13;;;;;;;;;4.33;3.33;;;;;27.41;40.99;101971.34;6189911;22;45628;-81
2022/06/11 11:41:53;;;;;;;;;3.67;3.00;;;;;27.48;40.87;101964.66;6217367;22;45373;-81
2022/06/11 11:44:21;;;;;;;;;2.00;2.00;;;;;27.61;40.45;101963.00;6189561;22;45199;-82
2022/06/11 11:46:55;;;;;;;;;2.67;2.33;;;;;27.69;40.28;101959.84;6216782;22;46317;-81